Time;durP1;ratioP1;P1;durP2;ratioP2;P2;SDS_P1;SDS_P2;PMS_P1;PMS_P2;Temp;Humidity;BMP_temperature;BMP_pressure;BME280_temperature;BME280_humidity;BME280_pressure;Samples;Min_cycle;Max_cycle;Signal;HPM_P1;HPM_P2
2023/01/15 00:00:29;;;;;;;;;;;;;;;10.47;57.00;101161.25;4978523;28;19914;-85
2023/01/15 00:03:14;;;;;;;;;;;;;;;10.45;57.85;101152.63;4996047;28;19915;-86
2023/01/15 00:06:02;;;;;;;;;;;;;;;10.69;57.07;101145.03;4951207;29;19915;-86
2023/01/15 00:08:47;;;;;;;;;;;;;;;10.70;57.27;101142.00;4987872;28;19918;-85
2023/01/15 00:11:32;;;;;;;;;;;;;;;10.89;57.73;101138.31;4965080;28;19914;-86
2023/01/15 00:14:17;;;;;;;;;;;;;;;10.93;57.26;101139.31;4969085;28;19918;-87
2023/01/15 00:17:01;;;;;;;;;;;;;;;10.97;56.18;101135.69;4962149;28;19919;-86
2023/01/15 00:19:46;;;;;;;;;;;;;;;10.90;56.73;101135.31;4971460;28;19914;-87
2023/01/15 00:22:30;;;;;;;;;;;;;;;10.82;56.81;101138.75;4983091;28;19914;-87
2023/01/15 00:28:18;;;;;;;;;;;;;;;10.67;55.85;101122.75;4962691;29;19948;-86
2023/01/15 00:31:04;;;;;;;;;;;;;;;10.47;54.56;101123.19;4971676;28;20393;-86
2023/01/15 00:33:48;;;;;;;;;;;;;;;10.21;55.41;101112.84;4965985;29;19915;-86
2023/01/15 00:36:36;;;;;;;;;;;;;;;9.95;56.39;101106.31;4978308;28;19918;-89
2023/01/15 00:39:22;;;;;;;;;;;;;;;9.96;56.39;101097.03;4982689;28;19914;-88
2023/01/15 00:42:07;;;;;;;;;;;;;;;9.99;56.36;101096.44;4969214;28;19913;-88
2023/01/15 00:44:52;;;;;;;;;;;;;;;10.04;57.62;101099.06;4985096;28;19913;-88
2023/01/15 00:47:37;;;;;;;;;;;;;;;10.05;57.58;101100.66;4952137;28;19915;-88
2023/01/15 00:50:22;;;;;;;;;;;;;;;10.22;58.69;101100.06;4966016;28;19914;-88
2023/01/15 00:53:06;;;;;;;;;;;;;;;10.46;57.56;101100.66;4980944;28;19915;-88
2023/01/15 00:55:51;;;;;;;;;;;;;;;10.29;57.26;101103.19;4942858;29;19918;-89
2023/01/15 00:58:35;;;;;;;;;;;;;;;10.31;58.16;101095.53;4945311;29;19915;-89
2023/01/15 01:01:20;;;;;;;;;;;;;;;10.43;57.62;101097.72;4962231;29;19914;-87
2023/01/15 01:04:05;;;;;;;;;;;;;;;10.57;57.10;101093.06;4971524;28;19914;-88
2023/01/15 01:06:49;;;;;;;;;;;;;;;10.63;57.73;101089.94;4943402;29;19915;-89
2023/01/15 01:09:34;;;;;;;;;;;;;;;10.66;57.65;101091.25;4946681;29;19914;-88
2023/01/15 01:12:20;;;;;;;;;;;;;;;10.67;57.43;101084.69;4968075;28;19914;-88
2023/01/15 01:15:06;;;;;;;;;;;;;;;10.77;57.18;101076.28;4967953;28;19914;-87
2023/01/15 01:17:52;;;;;;;;;;;;;;;10.72;56.72;101084.56;4967682;28;19914;-88
2023/01/15 01:20:37;;;;;;;;;;;;;;;10.25;56.86;101075.03;4978381;28;20394;-88
2023/01/15 01:23:23;;;;;;;;;;;;;;;10.28;57.99;101075.22;4967422;28;19914;-88
2023/01/15 01:26:08;;;;;;;;;;;;;;;10.37;58.00;101077.19;4964363;28;19917;-90
2023/01/15 01:28:53;;;;;;;;;;;;;;;10.26;57.80;101071.16;4975250;28;19914;-90
2023/01/15 01:31:37;;;;;;;;;;;;;;;10.42;57.95;101068.94;4955554;28;19918;-88
2023/01/15 01:34:22;;;;;;;;;;;;;;;10.48;58.11;101065.81;4973741;28;20379;-88
2023/01/15 01:37:07;;;;;;;;;;;;;;;10.52;58.21;101071.44;4947844;29;19919;-89
2023/01/15 01:39:51;;;;;;;;;;;;;;;10.60;58.44;101068.00;4980723;28;19914;-88
2023/01/15 01:42:37;;;;;;;;;;;;;;;10.53;57.87;101054.00;4975282;28;20378;-88
2023/01/15 01:45:24;;;;;;;;;;;;;;;10.15;56.26;101058.91;4966892;28;19914;-88
2023/01/15 01:48:09;;;;;;;;;;;;;;;10.37;57.64;101061.69;4988476;28;19914;-89
2023/01/15 01:50:54;;;;;;;;;;;;;;;10.38;57.20;101065.22;4976857;28;20326;-88
2023/01/15 01:53:39;;;;;;;;;;;;;;;10.42;56.39;101064.31;4987828;28;19914;-89
2023/01/15 01:56:23;;;;;;;;;;;;;;;10.11;57.75;101058.69;4965976;28;19919;-89
2023/01/15 01:59:12;;;;;;;;;;;;;;;10.19;57.11;101059.94;4977931;28;19919;-89
2023/01/15 02:01:58;;;;;;;;;;;;;;;10.23;57.68;101061.72;4974427;28;19915;-89
2023/01/15 02:04:43;;;;;;;;;;;;;;;10.14;57.06;101052.66;4967870;29;19914;-89
2023/01/15 02:07:32;;;;;;;;;;;;;;;10.17;57.13;101052.06;4964815;28;19919;-89
2023/01/15 02:10:17;;;;;;;;;;;;;;;10.00;56.66;101040.19;4962969;28;19914;-89
2023/01/15 02:13:06;;;;;;;;;;;;;;;10.03;57.66;101031.44;4959009;28;19914;-89
2023/01/15 02:16:01;;;;;;;;;;;;;;;9.90;57.55;101035.78;4943045;29;19918;-89
2023/01/15 02:18:51;;;;;;;;;;;;;;;9.93;57.61;101032.44;4980133;28;19914;-90
2023/01/15 02:21:50;;;;;;;;;;;;;;;9.74;57.70;101026.31;4967359;29;19914;-86
2023/01/15 02:24:34;;;;;;;;;;;;;;;9.88;57.85;101022.50;4978343;28;19914;-86
2023/01/15 02:27:21;;;;;;;;;;;;;;;9.82;57.80;101012.84;4963100;28;19914;-86
2023/01/15 02:30:10;;;;;;;;;;;;;;;9.94;58.75;100998.75;4969401;28;19914;-86
2023/01/15 02:33:13;;;;;;;;;;;;;;;9.95;59.63;100997.66;4960331;28;19914;-86
2023/01/15 02:36:05;;;;;;;;;;;;;;;9.78;58.32;100995.53;4960684;28;19918;-86
2023/01/15 02:38:52;;;;;;;;;;;;;;;9.81;57.11;100988.69;4975089;28;19919;-89
2023/01/15 02:41:38;;;;;;;;;;;;;;;9.82;57.34;100982.16;4967313;28;19918;-88
2023/01/15 02:44:25;;;;;;;;;;;;;;;9.92;56.52;100972.97;4982654;28;19915;-88
2023/01/15 02:47:14;;;;;;;;;;;;;;;9.84;56.65;100974.50;4967129;28;19914;-88
2023/01/15 02:50:03;;;;;;;;;;;;;;;9.56;57.63;100972.91;4969177;28;19914;-87
2023/01/15 02:52:58;;;;;;;;;;;;;;;9.64;58.94;100972.22;4963713;29;19923;-87
2023/01/15 02:55:48;;;;;;;;;;;;;;;9.52;57.89;100966.47;4969629;28;19922;-90
2023/01/15 02:58:37;;;;;;;;;;;;;;;9.78;58.37;100960.22;4967585;28;19918;-89
2023/01/15 03:01:25;;;;;;;;;;;;;;;9.87;59.06;100952.16;4980179;28;19914;-89
2023/01/15 03:04:16;;;;;;;;;;;;;;;10.06;60.34;100957.44;4967320;28;19914;-90
2023/01/15 03:07:05;;;;;;;;;;;;;;;10.01;60.78;100952.94;4967628;28;19915;-89
2023/01/15 03:09:54;;;;;;;;;;;;;;;10.04;58.86;100957.78;4966658;28;19936;-89
2023/01/15 03:13:03;;;;;;;;;;;;;;;10.19;59.81;100960.19;4959584;29;20535;-90
2023/01/15 03:16:36;;;;;;;;;;;;;;;10.34;59.35;100958.22;4963442;28;19918;-88
2023/01/15 03:19:26;;;;;;;;;;;;;;;10.23;59.24;100950.31;4966792;29;19918;-88
2023/01/15 03:22:20;;;;;;;;;;;;;;;10.34;57.85;100950.88;4972438;28;19914;-88
2023/01/15 03:25:04;;;;;;;;;;;;;;;10.26;58.41;100952.38;4977492;28;19915;-88
2023/01/15 03:28:00;;;;;;;;;;;;;;;10.33;58.30;100943.00;4952216;29;19915;-88
2023/01/15 03:30:46;;;;;;;;;;;;;;;10.33;58.65;100948.44;4946806;29;20290;-89
2023/01/15 03:33:32;;;;;;;;;;;;;;;10.18;58.49;100939.53;4953532;28;19914;-88
2023/01/15 03:36:17;;;;;;;;;;;;;;;10.27;59.06;100934.97;4966497;28;19919;-90
2023/01/15 03:39:05;;;;;;;;;;;;;;;10.29;58.28;100935.50;4956787;28;19914;-89
2023/01/15 03:42:15;;;;;;;;;;;;;;;10.10;59.42;100932.09;4947415;29;19915;-89
2023/01/15 03:45:17;;;;;;;;;;;;;;;10.21;59.26;100933.47;4957570;28;19914;-91
2023/01/15 03:48:09;;;;;;;;;;;;;;;10.32;59.11;100925.09;4965781;28;19918;-90
2023/01/15 03:50:59;;;;;;;;;;;;;;;10.15;58.58;100914.88;4965217;29;19910;-90
2023/01/15 03:53:49;;;;;;;;;;;;;;;9.99;58.19;100914.41;4966189;28;19915;-89
2023/01/15 03:56:54;;;;;;;;;;;;;;;10.09;57.00;100905.22;4959754;28;19918;-86
2023/01/15 03:59:47;;;;;;;;;;;;;;;9.97;57.89;100903.03;4953233;28;19915;-86
2023/01/15 04:02:32;;;;;;;;;;;;;;;10.00;57.97;100901.66;4972478;28;20386;-86
2023/01/15 04:05:17;;;;;;;;;;;;;;;10.00;56.57;100899.72;4950434;29;19915;-86
2023/01/15 04:08:05;;;;;;;;;;;;;;;10.00;55.91;100891.59;4959984;28;19915;-85
2023/01/15 04:10:58;;;;;;;;;;;;;;;10.10;55.96;100883.19;4968609;29;19918;-84
2023/01/15 04:13:46;;;;;;;;;;;;;;;9.73;56.92;100878.06;4986149;28;19914;-85
2023/01/15 04:16:47;;;;;;;;;;;;;;;9.58;57.51;100868.34;4967129;28;19922;-85
2023/01/15 04:19:32;;;;;;;;;;;;;;;9.72;56.68;100862.88;4973984;28;19915;-84
2023/01/15 04:22:20;;;;;;;;;;;;;;;9.43;57.37;100860.53;4968648;29;19914;-84
2023/01/15 04:25:05;;;;;;;;;;;;;;;9.48;57.02;100857.72;4968720;29;20370;-84
2023/01/15 04:27:52;;;;;;;;;;;;;;;9.38;57.55;100856.00;4968557;28;19918;-84
2023/01/15 04:30:37;;;;;;;;;;;;;;;9.70;56.91;100860.47;4968575;29;20366;-85
2023/01/15 04:33:22;;;;;;;;;;;;;;;9.91;56.57;100860.81;4970720;28;19915;-85
2023/01/15 04:36:07;;;;;;;;;;;;;;;9.71;57.26;100866.69;4964732;28;19918;-86
2023/01/15 04:38:53;;;;;;;;;;;;;;;9.47;57.76;100852.56;4965783;28;19914;-86
2023/01/15 04:45:00;;;;;;;;;;;;;;;9.77;57.24;100852.72;4975605;28;19914;-86
2023/01/15 04:47:45;;;;;;;;;;;;;;;9.87;56.58;100857.91;4961805;28;19914;-87
2023/01/15 04:50:29;;;;;;;;;;;;;;;9.67;56.60;100857.56;4959643;28;19914;-86
2023/01/15 04:53:14;;;;;;;;;;;;;;;9.36;57.47;100851.97;4961882;29;19915;-86
2023/01/15 04:55:59;;;;;;;;;;;;;;;9.42;57.67;100845.34;4966849;28;19918;-85
2023/01/15 04:58:44;;;;;;;;;;;;;;;9.28;58.18;100850.81;4964906;29;19914;-85
2023/01/15 05:01:28;;;;;;;;;;;;;;;9.61;57.64;100850.63;4970080;28;19918;-87
2023/01/15 05:04:12;;;;;;;;;;;;;;;9.81;57.93;100842.03;4976345;28;19914;-87
2023/01/15 05:06:57;;;;;;;;;;;;;;;9.75;58.84;100837.84;4970745;28;19914;-88
2023/01/15 05:09:42;;;;;;;;;;;;;;;9.73;59.43;100831.91;4943092;29;19918;-85
2023/01/15 05:12:26;;;;;;;;;;;;;;;9.61;60.26;100827.00;4970836;28;19918;-85
2023/01/15 05:15:10;;;;;;;;;;;;;;;9.64;60.79;100823.69;4943298;29;19918;-85
2023/01/15 05:17:55;;;;;;;;;;;;;;;9.55;61.65;100822.00;4956463;29;19919;-87
2023/01/15 05:20:40;;;;;;;;;;;;;;;9.63;61.73;100821.28;4960551;29;19914;-87
2023/01/15 05:23:25;;;;;;;;;;;;;;;9.74;61.43;100811.78;4966212;28;19914;-88
2023/01/15 05:26:09;;;;;;;;;;;;;;;9.73;61.24;100811.00;4980950;28;19914;-87
2023/01/15 05:28:55;;;;;;;;;;;;;;;9.53;61.69;100813.34;4967755;28;19914;-86
2023/01/15 05:31:41;;;;;;;;;;;;;;;9.47;61.76;100822.72;4959868;28;19914;-85
2023/01/15 05:34:26;;;;;;;;;;;;;;;9.48;61.25;100824.31;4974936;28;19914;-83
2023/01/15 05:37:10;;;;;;;;;;;;;;;9.50;61.05;100825.63;4964198;28;19918;-84
2023/01/15 05:39:56;;;;;;;;;;;;;;;9.48;60.49;100824.31;4971424;28;19915;-84
2023/01/15 05:42:40;;;;;;;;;;;;;;;9.36;61.18;100825.66;4984464;28;19914;-84
2023/01/15 05:45:25;;;;;;;;;;;;;;;9.04;62.03;100814.16;4981951;28;19922;-84
2023/01/15 05:48:09;;;;;;;;;;;;;;;8.70;63.37;100798.25;4986370;28;19918;-85
2023/01/15 05:50:54;;;;;;;;;;;;;;;8.64;64.00;100802.97;4968614;29;19916;-84
2023/01/15 05:53:39;;;;;;;;;;;;;;;8.87;63.30;100812.84;4975843;28;19919;-84
2023/01/15 05:56:23;;;;;;;;;;;;;;;8.96;63.14;100797.47;4969991;28;19918;-84
2023/01/15 05:59:08;;;;;;;;;;;;;;;8.84;63.25;100797.16;4983667;28;20305;-84
2023/01/15 06:01:53;;;;;;;;;;;;;;;8.72;64.03;100804.19;4965503;29;19914;-87
2023/01/15 06:04:37;;;;;;;;;;;;;;;9.05;63.17;100813.81;4969626;28;19915;-85
2023/01/15 06:07:22;;;;;;;;;;;;;;;9.40;61.64;100804.94;4973049;28;19914;-85
2023/01/15 06:10:06;;;;;;;;;;;;;;;9.45;61.41;100806.72;4969337;28;19922;-83
2023/01/15 06:12:51;;;;;;;;;;;;;;;9.42;62.01;100791.06;4969414;29;19919;-88
2023/01/15 06:15:35;;;;;;;;;;;;;;;9.32;62.79;100800.22;4961688;28;19914;-80
2023/01/15 06:18:22;;;;;;;;;;;;;;;9.43;61.60;100788.06;4973135;28;19918;-81
2023/01/15 06:21:08;;;;;;;;;;;;;;;9.39;60.97;100775.41;4967979;29;20385;-81
2023/01/15 06:23:53;;;;;;;;;;;;;;;8.48;64.69;100772.63;4977284;28;19914;-81
2023/01/15 06:26:38;;;;;;;;;;;;;;;8.58;64.38;100768.97;4987099;28;19914;-81
2023/01/15 06:29:23;;;;;;;;;;;;;;;9.08;62.94;100777.97;4986576;28;20394;-80
2023/01/15 06:32:07;;;;;;;;;;;;;;;8.93;63.05;100768.25;4974548;28;20302;-80
2023/01/15 06:34:52;;;;;;;;;;;;;;;9.32;61.88;100780.44;4948295;29;19914;-80
2023/01/15 06:37:36;;;;;;;;;;;;;;;9.39;61.92;100795.22;4965158;28;19919;-80
2023/01/15 06:40:22;;;;;;;;;;;;;;;9.30;62.52;100793.50;4951838;29;19915;-82
2023/01/15 06:49:16;;;;;;;;;;;;;;;9.24;61.90;100781.16;4966436;28;19914;-80
2023/01/15 06:52:01;;;;;;;;;;;;;;;9.26;61.44;100785.16;4962341;28;19915;-80
2023/01/15 06:54:45;;;;;;;;;;;;;;;9.33;60.75;100793.72;4962004;28;19915;-80
2023/01/15 06:57:29;;;;;;;;;;;;;;;9.18;60.86;100785.91;4959291;28;19919;-80
2023/01/15 07:00:14;;;;;;;;;;;;;;;9.14;61.02;100786.81;4950696;29;19915;-80
2023/01/15 07:03:00;;;;;;;;;;;;;;;9.03;61.40;100772.66;4960047;29;19918;-81
2023/01/15 07:05:44;;;;;;;;;;;;;;;8.82;62.62;100766.03;4964523;28;20378;-77
2023/01/15 07:08:29;;;;;;;;;;;;;;;9.08;61.87;100763.59;4958566;28;20297;-79
2023/01/15 07:11:14;;;;;;;;;;;;;;;8.96;62.26;100756.78;4965983;28;19914;-77
2023/01/15 07:14:04;;;;;;;;;;;;;;;8.71;64.65;100729.38;4948756;29;20306;-77
2023/01/15 07:16:49;;;;;;;;;;;;;;;8.63;65.97;100716.56;4956656;28;19922;-77
2023/01/15 07:19:34;;;;;;;;;;;;;;;8.77;64.55;100720.06;4973308;28;20400;-77
2023/01/15 07:22:18;;;;;;;;;;;;;;;8.97;63.55;100728.56;4955824;29;19914;-77
2023/01/15 07:25:03;;;;;;;;;;;;;;;8.63;63.90;100740.94;4964719;28;20386;-77
2023/01/15 07:27:48;;;;;;;;;;;;;;;8.59;64.49;100743.44;4965591;29;19914;-78
2023/01/15 07:30:32;;;;;;;;;;;;;;;8.54;65.00;100747.03;4980551;28;19915;-81
2023/01/15 07:33:17;;;;;;;;;;;;;;;8.65;65.44;100749.56;4977342;28;19915;-82
2023/01/15 07:36:02;;;;;;;;;;;;;;;8.44;66.17;100727.47;4964681;28;19914;-85
2023/01/15 07:38:46;;;;;;;;;;;;;;;8.63;65.63;100724.69;4957790;28;19918;-83
2023/01/15 07:50:40;;;;;;;;;;;;;;;9.07;64.28;100757.38;4944085;29;20301;-83
2023/01/15 07:53:25;;;;;;;;;;;;;;;8.87;65.31;100760.50;4972556;28;19922;-83
2023/01/15 07:56:11;;;;;;;;;;;;;;;8.92;65.31;100753.06;4966510;28;19923;-83
2023/01/15 07:58:55;;;;;;;;;;;;;;;8.99;65.09;100758.88;4955487;28;19918;-83
2023/01/15 08:01:39;;;;;;;;;;;;;;;8.98;65.37;100741.03;4953674;28;19918;-82
2023/01/15 08:04:24;;;;;;;;;;;;;;;8.83;65.97;100737.81;4949786;28;19914;-82
2023/01/15 08:07:09;;;;;;;;;;;;;;;9.02;65.21;100738.50;4954161;28;19914;-82
2023/01/15 08:09:53;;;;;;;;;;;;;;;8.93;65.42;100743.03;4967163;28;19914;-82
2023/01/15 08:15:42;;;;;;;;;;;;;;;8.87;65.78;100758.59;4957962;28;19915;-82
2023/01/15 08:18:27;;;;;;;;;;;;;;;8.90;66.08;100759.88;4966761;28;19919;-82
2023/01/15 08:21:12;;;;;;;;;;;;;;;8.91;65.68;100747.94;4949998;28;19914;-82
2023/01/15 08:23:56;;;;;;;;;;;;;;;8.90;66.29;100755.28;4971379;28;19915;-82
2023/01/15 08:26:41;;;;;;;;;;;;;;;8.88;66.20;100748.56;4953794;28;19915;-82
2023/01/15 08:29:26;;;;;;;;;;;;;;;8.77;66.77;100742.53;4955072;28;19922;-82
2023/01/15 08:32:11;;;;;;;;;;;;;;;8.74;66.96;100731.47;4965541;28;19914;-82
2023/01/15 08:34:56;;;;;;;;;;;;;;;8.69;66.89;100726.97;4952897;28;19914;-82
2023/01/15 08:37:41;;;;;;;;;;;;;;;8.79;66.80;100736.81;4950148;28;19919;-82
2023/01/15 08:40:25;;;;;;;;;;;;;;;8.95;66.08;100743.50;4966398;28;19914;-82
2023/01/15 08:43:10;;;;;;;;;;;;;;;8.87;66.05;100736.09;4947754;29;19915;-81
2023/01/15 08:45:56;;;;;;;;;;;;;;;9.04;65.44;100746.34;4951539;28;19914;-81
2023/01/15 08:48:41;;;;;;;;;;;;;;;9.01;65.51;100736.88;4950642;29;19915;-82
2023/01/15 08:51:26;;;;;;;;;;;;;;;8.79;66.75;100720.53;4953530;28;19914;-81
2023/01/15 08:54:11;;;;;;;;;;;;;;;8.72;66.86;100717.44;4951371;29;19915;-82
2023/01/15 08:56:55;;;;;;;;;;;;;;;8.70;67.68;100719.63;4952067;28;19919;-82
2023/01/15 08:59:42;;;;;;;;;;;;;;;8.74;67.79;100734.19;4952672;28;19918;-81
2023/01/15 09:02:28;;;;;;;;;;;;;;;8.74;67.47;100735.00;4964085;28;20390;-83
2023/01/15 09:05:12;;;;;;;;;;;;;;;8.92;66.66;100731.38;4953297;28;20001;-83
2023/01/15 09:07:57;;;;;;;;;;;;;;;8.91;66.16;100724.34;4945871;29;20363;-82
2023/01/15 09:10:41;;;;;;;;;;;;;;;8.94;66.34;100720.22;4949149;29;20282;-82
2023/01/15 09:13:26;;;;;;;;;;;;;;;8.84;66.59;100721.22;4949604;28;19922;-81
2023/01/15 09:16:11;;;;;;;;;;;;;;;9.03;65.33;100699.41;4961273;28;19915;-81
2023/01/15 09:18:56;;;;;;;;;;;;;;;8.89;65.62;100712.19;4960131;28;19918;-81
2023/01/15 09:21:40;;;;;;;;;;;;;;;8.93;65.66;100724.06;4952963;29;19914;-82
2023/01/15 09:24:24;;;;;;;;;;;;;;;8.86;65.85;100716.31;4977864;28;19914;-83
2023/01/15 09:27:10;;;;;;;;;;;;;;;9.00;64.96;100719.00;4950869;28;19914;-85
2023/01/15 09:29:55;;;;;;;;;;;;;;;9.02;64.87;100722.22;4952661;28;19915;-86
2023/01/15 09:32:39;;;;;;;;;;;;;;;9.07;64.45;100724.81;4949871;29;20305;-83
2023/01/15 09:35:23;;;;;;;;;;;;;;;8.95;64.28;100728.06;4949364;28;19914;-85
2023/01/15 09:38:11;;;;;;;;;;;;;;;9.10;64.41;100735.06;4948489;28;20333;-82
2023/01/15 09:40:58;;;;;;;;;;;;;;;8.99;64.51;100729.03;4948584;29;19915;-82
2023/01/15 09:43:51;;;;;;;;;;;;;;;8.96;65.34;100732.38;4966368;28;19915;-83
2023/01/15 09:46:52;;;;;;;;;;;;;;;9.11;65.20;100725.00;4948237;28;19915;-84
2023/01/15 09:49:46;;;;;;;;;;;;;;;9.05;65.49;100715.38;4947614;28;19915;-82
2023/01/15 09:52:54;;;;;;;;;;;;;;;9.07;65.54;100719.41;4966368;28;19918;-81
2023/01/15 09:55:45;;;;;;;;;;;;;;;9.10;65.59;100701.69;4964150;28;19915;-81
2023/01/15 09:58:35;;;;;;;;;;;;;;;9.09;65.56;100709.06;4966946;28;20175;-81
2023/01/15 10:01:24;;;;;;;;;;;;;;;9.09;65.52;100700.91;4943237;29;19918;-78
2023/01/15 10:04:08;;;;;;;;;;;;;;;9.09;66.02;100695.50;4950482;29;19923;-79
2023/01/15 10:07:03;;;;;;;;;;;;;;;9.27;64.93;100686.38;4968002;28;19915;-77
2023/01/15 10:09:52;;;;;;;;;;;;;;;9.30;64.92;100674.09;4965818;28;20342;-79
2023/01/15 10:12:38;;;;;;;;;;;;;;;9.21;65.42;100673.22;4954094;28;20390;-79
2023/01/15 10:15:26;;;;;;;;;;;;;;;9.17;65.76;100675.75;4944531;29;19915;-81
2023/01/15 10:18:21;;;;;;;;;;;;;;;9.33;65.24;100651.78;4973344;28;19918;-80
2023/01/15 10:21:33;;;;;;;;;;;;;;;9.43;64.24;100641.50;4969921;28;19915;-80
2023/01/15 10:24:27;;;;;;;;;;;;;;;9.41;64.74;100640.19;4935832;29;19918;-80
2023/01/15 10:27:20;;;;;;;;;;;;;;;9.32;64.69;100636.63;4945025;29;19914;-80
2023/01/15 10:30:15;;;;;;;;;;;;;;;9.19;65.57;100635.59;4939948;29;19914;-85
2023/01/15 10:33:28;;;;;;;;;;;;;;;9.40;65.12;100614.97;4967500;28;19915;-86
2023/01/15 10:36:16;;;;;;;;;;;;;;;9.20;66.29;100620.06;4958587;28;19914;-85
2023/01/15 10:39:10;;;;;;;;;;;;;;;9.06;66.72;100625.56;4969901;28;19942;-86
2023/01/15 10:42:04;;;;;;;;;;;;;;;8.95;67.18;100626.91;4937706;29;19914;-84
2023/01/15 10:44:55;;;;;;;;;;;;;;;8.85;67.54;100627.94;4956067;28;19914;-85
2023/01/15 10:48:06;;;;;;;;;;;;;;;8.87;67.41;100631.16;4965763;28;20374;-85
2023/01/15 10:50:52;;;;;;;;;;;;;;;9.01;66.88;100625.69;4948645;29;19915;-85
2023/01/15 10:53:46;;;;;;;;;;;;;;;9.26;65.61;100635.13;4956677;29;19918;-84
2023/01/15 10:56:44;;;;;;;;;;;;;;;9.25;65.72;100636.22;4947564;29;19915;-84
2023/01/15 10:59:29;;;;;;;;;;;;;;;9.25;65.60;100625.38;4959329;28;20297;-84
2023/01/15 11:02:22;;;;;;;;;;;;;;;9.08;66.18;100619.84;4972980;28;20407;-85
2023/01/15 11:05:13;;;;;;;;;;;;;;;9.07;66.26;100620.94;4947253;29;19914;-82
2023/01/15 11:07:58;;;;;;;;;;;;;;;9.13;65.97;100619.72;4967919;28;19915;-85
2023/01/15 11:10:42;;;;;;;;;;;;;;;9.01;66.94;100614.84;4958985;28;19922;-84
2023/01/15 11:19:42;;;;;;;;;;;;;;;9.57;64.61;100587.13;4958471;28;19926;-85
2023/01/15 11:22:28;;;;;;;;;;;;;;;9.68;64.45;100574.88;4963894;28;20373;-85
2023/01/15 11:25:13;;;;;;;;;;;;;;;9.62;65.32;100572.63;4958481;28;19914;-84
2023/01/15 11:28:03;;;;;;;;;;;;;;;9.72;64.98;100569.63;4951180;28;19915;-92
2023/01/15 11:30:54;;;;;;;;;;;;;;;9.51;65.73;100555.78;4949720;28;19914;-85
2023/01/15 11:33:39;;;;;;;;;;;;;;;9.33;66.73;100556.81;4976590;28;19914;-85
2023/01/15 11:36:25;;;;;;;;;;;;;;;9.47;66.76;100543.97;4965785;28;19914;-86
2023/01/15 11:39:29;;;;;;;;;;;;;;;8.98;67.83;100529.47;4980768;28;19918;-84
2023/01/15 11:51:26;;;;;;;;;;;;;;;9.61;66.62;100525.66;4978173;28;19914;-84
2023/01/15 11:54:12;;;;;;;;;;;;;;;9.78;66.20;100528.44;4975332;28;19918;-85
2023/01/15 11:56:57;;;;;;;;;;;;;;;9.71;66.09;100517.22;4959268;28;19914;-85
2023/01/15 11:59:47;;;;;;;;;;;;;;;9.52;67.42;100508.53;4964398;28;19914;-84
2023/01/15 12:02:44;;;;;;;;;;;;;;;9.54;67.61;100492.75;4968191;28;19914;-84
2023/01/15 12:05:34;;;;;;;;;;;;;;;9.45;67.91;100491.91;4973478;28;19914;-85
2023/01/15 12:08:32;;;;;;;;;;;;;;;9.40;68.08;100492.84;4969615;28;19915;-85
2023/01/15 12:11:36;;;;;;;;;;;;;;;9.35;68.58;100484.03;4977223;28;19914;-84
2023/01/15 12:14:20;;;;;;;;;;;;;;;9.37;68.36;100471.75;4958676;28;19917;-85
2023/01/15 12:17:24;;;;;;;;;;;;;;;9.49;68.21;100478.53;4955271;28;19914;-84
2023/01/15 12:20:23;;;;;;;;;;;;;;;9.42;67.71;100468.09;4976763;28;19914;-85
2023/01/15 12:23:13;;;;;;;;;;;;;;;9.47;68.87;100472.59;4968464;28;20307;-87
2023/01/15 12:25:58;;;;;;;;;;;;;;;9.41;68.40;100471.94;4985118;28;19943;-82
2023/01/15 12:28:50;;;;;;;;;;;;;;;9.41;68.41;100466.50;4969855;28;19914;-84
2023/01/15 12:31:38;;;;;;;;;;;;;;;9.58;68.19;100472.00;4984963;28;19914;-84
2023/01/15 12:34:26;;;;;;;;;;;;;;;9.59;68.18;100473.63;4955443;28;19914;-84
2023/01/15 12:37:21;;;;;;;;;;;;;;;9.57;68.33;100466.88;4967347;28;19918;-85
2023/01/15 12:40:05;;;;;;;;;;;;;;;9.69;67.95;100464.38;4982594;28;19997;-86
2023/01/15 12:45:58;;;;;;;;;;;;;;;9.69;68.42;100464.38;4952964;28;19914;-84
2023/01/15 12:49:00;;;;;;;;;;;;;;;9.56;68.46;100462.56;4946566;29;19922;-83
2023/01/15 12:51:53;;;;;;;;;;;;;;;9.57;68.88;100456.81;4951222;28;19914;-83
2023/01/15 12:54:41;;;;;;;;;;;;;;;9.63;68.95;100454.78;4957658;28;19914;-85
2023/01/15 12:57:32;;;;;;;;;;;;;;;9.65;69.42;100442.47;4957689;28;20397;-83
2023/01/15 13:00:25;;;;;;;;;;;;;;;9.98;67.65;100429.28;4975876;28;19918;-83
2023/01/15 13:03:24;;;;;;;;;;;;;;;9.94;67.56;100427.53;4966522;28;19915;-85
2023/01/15 13:06:10;;;;;;;;;;;;;;;9.79;68.41;100412.50;4948252;28;19919;-87
2023/01/15 13:08:58;;;;;;;;;;;;;;;9.71;68.91;100399.69;4961930;28;20374;-91
2023/01/15 13:11:43;;;;;;;;;;;;;;;9.75;69.20;100395.25;4961913;28;19913;-83
2023/01/15 13:14:29;;;;;;;;;;;;;;;9.50;69.92;100377.00;4979977;28;19914;-85
2023/01/15 13:17:32;;;;;;;;;;;;;;;9.92;68.42;100368.09;4959232;28;20337;-86
2023/01/15 13:20:17;;;;;;;;;;;;;;;9.45;69.76;100362.44;4969883;28;20301;-85
2023/01/15 13:23:08;;;;;;;;;;;;;;;9.49;70.02;100372.66;4953821;28;19914;-82
2023/01/15 13:26:11;;;;;;;;;;;;;;;9.42;70.80;100370.41;4970002;28;19914;-84
2023/01/15 13:28:56;;;;;;;;;;;;;;;9.38;70.23;100361.31;4980447;28;19914;-82
2023/01/15 13:32:00;;;;;;;;;;;;;;;9.53;70.44;100347.28;4962723;28;19922;-81
2023/01/15 13:34:45;;;;;;;;;;;;;;;9.42;70.91;100341.38;4958667;28;19914;-82
2023/01/15 13:37:40;;;;;;;;;;;;;;;9.57;70.36;100350.16;4967995;28;19914;-83
2023/01/15 13:40:27;;;;;;;;;;;;;;;9.09;72.61;100352.94;4976817;28;19914;-82
2023/01/15 13:43:22;;;;;;;;;;;;;;;9.51;71.14;100343.28;4964733;28;19915;-85
2023/01/15 13:46:09;;;;;;;;;;;;;;;9.52;70.98;100344.88;4976707;28;19914;-84
2023/01/15 13:48:54;;;;;;;;;;;;;;;9.70;70.91;100343.81;4963287;28;19914;-83
2023/01/15 13:51:42;;;;;;;;;;;;;;;9.74;70.73;100339.34;4992717;28;19926;-86
2023/01/15 13:54:27;;;;;;;;;;;;;;;9.65;70.74;100343.97;4960444;28;19922;-79
2023/01/15 13:57:22;;;;;;;;;;;;;;;9.79;70.28;100339.19;4956781;28;20317;-78
2023/01/15 14:00:26;;;;;;;;;;;;;;;9.55;70.98;100338.84;4950610;28;19918;-78
2023/01/15 14:03:24;;;;;;;;;;;;;;;9.73;70.70;100324.16;4953830;28;19914;-78
2023/01/15 14:06:09;;;;;;;;;;;;;;;9.75;70.90;100319.22;4950613;28;19914;-78
2023/01/15 14:08:54;;;;;;;;;;;;;;;9.73;70.76;100322.25;4949718;28;19915;-77
2023/01/15 14:11:53;;;;;;;;;;;;;;;9.64;71.48;100337.72;4954874;28;19915;-77
2023/01/15 14:14:55;;;;;;;;;;;;;;;9.70;70.98;100333.72;4952991;28;20286;-77
2023/01/15 14:18:11;;;;;;;;;;;;;;;9.74;70.63;100333.91;4937705;28;19926;-77
2023/01/15 14:20:59;;;;;;;;;;;;;;;9.95;70.34;100345.72;4966068;28;19914;-78
2023/01/15 14:23:43;;;;;;;;;;;;;;;9.66;70.06;100340.91;4946215;28;19915;-78
2023/01/15 14:26:35;;;;;;;;;;;;;;;9.62;70.87;100339.94;4960344;28;19940;-77
2023/01/15 14:29:38;;;;;;;;;;;;;;;9.96;70.15;100354.66;4965691;28;19913;-78
2023/01/15 14:32:49;;;;;;;;;;;;;;;9.92;70.28;100349.06;4947782;28;20290;-77
2023/01/15 14:35:42;;;;;;;;;;;;;;;9.75;70.93;100328.13;4963315;28;19914;-77
2023/01/15 14:38:28;;;;;;;;;;;;;;;9.91;70.86;100319.50;4953896;28;19918;-77
2023/01/15 14:41:13;;;;;;;;;;;;;;;9.79;70.82;100317.44;4967709;28;19915;-77
2023/01/15 14:43:59;;;;;;;;;;;;;;;9.84;70.88;100298.28;4970389;28;19915;-83
2023/01/15 14:46:44;;;;;;;;;;;;;;;9.84;70.80;100288.22;4962832;28;19915;-82
2023/01/15 14:49:30;;;;;;;;;;;;;;;9.75;71.23;100289.34;4969435;28;19922;-77
2023/01/15 14:52:20;;;;;;;;;;;;;;;9.88;70.66;100280.22;4947616;28;19914;-76
2023/01/15 14:55:09;;;;;;;;;;;;;;;9.82;70.20;100281.50;4957968;28;19914;-76
2023/01/15 14:58:02;;;;;;;;;;;;;;;9.77;70.51;100298.75;4958001;28;19919;-76
2023/01/15 15:00:50;;;;;;;;;;;;;;;9.67;71.11;100301.00;4961950;28;19914;-76
2023/01/15 15:03:37;;;;;;;;;;;;;;;10.02;69.97;100315.34;4957533;28;19918;-76
2023/01/15 15:06:22;;;;;;;;;;;;;;;10.21;69.45;100308.47;4957937;28;20305;-76
2023/01/15 15:09:12;;;;;;;;;;;;;;;9.99;69.81;100307.84;4959847;28;19914;-75
2023/01/15 15:12:19;;;;;;;;;;;;;;;10.15;69.59;100312.47;4953678;28;20374;-76
2023/01/15 15:15:07;;;;;;;;;;;;;;;10.14;69.26;100313.59;4953293;28;21503;-76
2023/01/15 15:17:58;;;;;;;;;;;;;;;10.04;69.86;100307.69;4960156;28;19918;-77